Terminal Aerodrome Forecast
Issued by NWS

Home | Current Version | Previous Version | Text Only | Print | Product List | Glossary On
Versions: 1 2 3 4 5 6 7 8 9 10 11 12 13 14 15 16
000
FTAK31 PAJN 271120
TAFAKT
TAF
PAKT 271120Z 2712/2812 34010KT P6SM BKN040
     FM272100 12008KT P6SM SCT040 BKN070
     FM281000 14006KT P6SM VCSH BKN030 OVC060
      AMD LTD TO CLD VIS AND WIND 2712/2715=

USA.gov is the U.S. government's official web portal to all federal, state and local government web resources and services.